• Join FlightAware (Why Join?)
  • Login
  • US Flag 
09:20PM EDT


 

Airport Tracker/Info


-or-


 

Live Flight TrackerFlight Track Log ✈ N1218P ✈ 26-Jul-2013 ✈ KIND - KMGY

Flight Track Log - Related Links

Times and Time Zones

All times are in EDT time to prevent confusion due to time zone crossing. See the N1218P flight status page for this flight to view local times or setup timezone preferences in your user account.

Time Position Orientation Groundspeed Altitude Reporting Facility
EDT Latitude Longitude Course Direction KTS MPH feet Rate Location/Type
04:52PM 39.7000 -86.3000 360° North 78 90 1,200  Level Indianapolis TRACON
04:52PM 39.7000 -86.3000 163° South 89 102 1,500 540 Climbing Indianapolis TRACON
04:53PM 39.6850 -86.2942 163° South 105 121 1,800 480 Climbing Indianapolis Center
04:54PM 39.6628 -86.2631 133° Southeast 115 132 2,300 360 Climbing Indianapolis Center
04:55PM 39.6406 -86.2300 131° Southeast 119 137 2,600 180 Climbing Indianapolis Center
04:56PM 39.6244 -86.1828 114° Southeast 136 157 2,700 420 Climbing Indianapolis Center
04:57PM 39.6153 -86.1300 103° East 132 152 3,500 720 Climbing Indianapolis Center
04:58PM 39.6197 -86.0878 82° East 125 144 4,200 600 Climbing Indianapolis Center
04:59PM 39.6247 -86.0467 81° East 119 137 4,800 480 Climbing Indianapolis Center
05:00PM 39.6308 -86.0028 80° East 120 138 5,200 300 Climbing Indianapolis Center
05:01PM 39.6397 -85.9558 76° East 127 146 5,500 180 Climbing Indianapolis Center
05:02PM 39.6458 -85.9058 81° East 135 155 5,600  Climbing Indianapolis Center
05:03PM 39.6514 -85.8417 84° East 143 165 5,500 -60 Descending Indianapolis Center
05:04PM 39.6539 -85.7878 87° East 147 169 5,500  Level Indianapolis Center
05:05PM 39.6578 -85.7339 85° East 149 171 5,500  Level Indianapolis Center
05:06PM 39.6614 -85.6811 85° East 149 171 5,600  Climbing Indianapolis Center
05:07PM 39.6642 -85.6256 86° East 151 174 5,600  Level Indianapolis Center
05:08PM 39.6658 -85.5731 88° East 150 173 5,600  Level Indianapolis Center
05:09PM 39.6689 -85.5072 87° East 151 174 5,600 -60 Level Indianapolis Center
05:10PM 39.6711 -85.4522 87° East 152 175 5,500  Descending Indianapolis Center
05:11PM 39.6736 -85.3975 87° East 152 175 5,600  Climbing Indianapolis Center
05:12PM 39.6731 -85.3328 91° East 150 173 5,500  Descending Indianapolis Center
05:13PM 39.6703 -85.2894 95° East 151 174 5,600 60 Climbing Indianapolis Center
05:14PM 39.6694 -85.2558 92° East 147 169 5,600 -120 Level Indianapolis Center
05:14PM 39.6664 -85.2386 103° East 147 169 5,500  Descending Indianapolis Center
05:15PM 39.6606 -85.1744 97° East 148 170 5,600 60 Climbing Indianapolis Center
05:16PM 39.6586 -85.1472 95° East 148 170 5,600 -120 Level Indianapolis Center
05:17PM 39.6525 -85.0917 98° East 147 169 5,500 -120 Descending Indianapolis Center
05:17PM 39.6519 -85.0697 92° East 146 168 5,500 60 Level Indianapolis Center
05:18PM 39.6478 -85.0189 96° East 144 166 5,600  Climbing Indianapolis Center
05:19PM 39.6433 -84.9675 96° East 144 166 5,600 -60 Level Indianapolis Center
05:20PM 39.6383 -84.9061 96° East 143 165 5,500  Descending Indianapolis Center
05:21PM 39.6336 -84.8572 97° East 146 168 5,600 -120 Climbing Indianapolis Center
05:22PM 39.6294 -84.8036 96° East 148 170 5,300 -420 Descending Indianapolis Center
05:24PM 39.6244 -84.7436 96° East 161 185 4,800 -540 Descending Indianapolis Center
05:24PM 39.6219 -84.7072 95° East 169 194 4,500 -540 Descending Indianapolis Center
05:25PM 39.6197 -84.6736 95° East 166 191 4,300 -540 Descending Indianapolis Center
05:25PM 39.6183 -84.6439 93° East 167 192 4,000 -480 Descending Indianapolis Center
05:26PM 39.6167 -84.6122 94° East 167 192 3,800 -300 Descending Indianapolis Center
05:27PM 39.6139 -84.5544 94° East 164 189 3,600 -180 Descending Indianapolis Center
05:28PM 39.6117 -84.5003 93° East 156 180 3,500 -60 Descending Indianapolis Center
05:29PM 39.6092 -84.4486 94° East 149 171 3,500  Level Indianapolis Center
05:30PM 39.6072 -84.3911 92° East 147 169 3,600 60 Climbing Indianapolis Center